Time;durP1;ratioP1;P1;durP2;ratioP2;P2;SDS_P1;SDS_P2;PMS_P1;PMS_P2;Temp;Humidity;BMP_temperature;BMP_pressure;BME280_temperature;BME280_humidity;BME280_pressure;Samples;Min_cycle;Max_cycle;Signal;HPM_P1;HPM_P2
2022/08/04 00:00:14;;;;;;;;;26.33;22.33;;;;;21.84;67.64;99731.19;6289147;20;3600280;-60
2022/08/04 00:03:15;;;;;;;;;23.00;23.00;;;;;21.45;68.70;99720.78;6285295;20;3588956;-60
2022/08/04 00:06:18;;;;;;;;;25.00;23.67;;;;;21.41;69.28;99719.41;6285141;20;3596129;-60
2022/08/04 00:08:58;;;;;;;;;25.00;22.67;;;;;21.36;69.97;99722.59;6286775;20;3593110;-60
2022/08/04 00:11:31;;;;;;;;;25.00;23.00;;;;;21.78;68.60;99723.66;6285520;20;3586773;-60
2022/08/04 00:14:10;;;;;;;;;21.33;21.33;;;;;21.68;68.78;99721.91;6286450;20;3569112;-60
2022/08/04 00:16:42;;;;;;;;;23.00;22.00;;;;;21.32;70.42;99723.06;6285882;20;3588800;-60
2022/08/04 00:19:29;;;;;;;;;24.00;23.33;;;;;21.48;70.27;99720.44;6287663;20;3578344;-60
2022/08/04 00:22:04;;;;;;;;;22.00;22.00;;;;;21.23;71.00;99723.03;6287683;20;3573406;-60
2022/08/04 00:24:36;;;;;;;;;20.33;19.33;;;;;20.99;72.33;99723.75;6290021;20;3569107;-60
2022/08/04 00:27:08;;;;;;;;;23.67;21.00;;;;;20.99;72.05;99722.91;6280508;20;2844006;-60
2022/08/04 00:29:39;;;;;;;;;23.33;20.00;;;;;20.96;72.02;99723.22;6320163;20;3579523;-64
2022/08/04 00:32:08;;;;;;;;;20.00;20.00;;;;;20.87;72.00;99725.00;6284497;20;2836766;-64
2022/08/04 00:34:37;;;;;;;;;19.33;19.33;;;;;20.94;71.40;99728.81;6288850;20;3579390;-63
2022/08/04 00:37:06;;;;;;;;;20.00;18.00;;;;;20.81;71.37;99726.50;6282336;20;2828382;-64
2022/08/04 00:39:36;;;;;;;;;19.00;19.00;;;;;20.89;71.30;99730.31;6289217;20;3568123;-64
2022/08/04 00:42:33;;;;;;;;;19.00;19.00;;;;;20.74;71.30;99732.75;6286268;20;3578789;-64
2022/08/04 00:46:23;;;;;;;;;22.00;20.67;;;;;20.83;71.46;99727.22;6285378;20;3580563;-64
2022/08/04 00:49:16;;;;;;;;;18.50;18.50;;;;;20.78;71.73;99728.72;6281996;20;2711728;-64
2022/08/04 00:52:25;;;;;;;;;21.00;19.33;;;;;20.59;72.60;99740.69;6317842;20;3571101;-64
2022/08/04 00:55:40;;;;;;;;;20.00;19.33;;;;;20.74;70.97;99733.63;6280465;20;2843992;-64
2022/08/04 00:59:04;;;;;;;;;18.67;18.67;;;;;21.05;71.22;99741.34;6317393;20;3546065;-64
2022/08/04 01:01:51;;;;;;;;;21.33;20.67;;;;;20.74;72.33;99732.75;6317712;20;3583751;-64
2022/08/04 01:04:46;;;;;;;;;19.33;18.67;;;;;20.84;72.11;99739.00;6282260;20;2841079;-64
2022/08/04 01:07:54;;;;;;;;;19.33;17.67;;;;;20.49;73.11;99739.88;6314412;20;3571096;-64
2022/08/04 01:11:13;;;;;;;;;21.00;21.00;;;;;20.56;73.39;99740.97;6284282;20;2836780;-64
2022/08/04 01:14:55;;;;;;;;;20.67;20.67;;;;;20.70;71.81;99734.97;6315247;20;3584613;-64
2022/08/04 01:17:42;;;;;;;;;16.50;16.00;;;;;20.87;71.10;99738.66;6280757;20;2827401;-64
2022/08/04 01:20:20;;;;;;;;;19.33;17.67;;;;;20.52;71.82;99734.94;6287321;20;3567940;-64
2022/08/04 01:23:11;;;;;;;;;21.33;20.00;;;;;20.50;71.96;99738.84;6283976;20;3576372;-64
2022/08/04 01:26:28;;;;;;;;;19.00;17.67;;;;;20.30;72.39;99730.84;6284148;20;3558670;-64
2022/08/04 01:29:22;;;;;;;;;21.00;19.50;;;;;20.41;72.63;99737.94;6279391;20;2825270;-64
2022/08/04 01:32:04;;;;;;;;;26.00;24.33;;;;;20.37;72.06;99731.91;6287253;20;3594014;-64
2022/08/04 01:35:10;;;;;;;;;18.00;18.00;;;;;20.75;69.85;99735.34;6281637;20;2837777;-63
2022/08/04 01:38:27;;;;;;;;;17.00;16.67;;;;;20.58;71.33;99725.31;6279826;20;2491958;-62
2022/08/04 01:41:04;;;;;;;;;21.00;19.00;;;;;20.41;72.03;99737.06;6319252;20;3575223;-63
2022/08/04 01:43:40;;;;;;;;;20.00;18.33;;;;;20.44;72.47;99739.47;6286072;20;3576324;-63
2022/08/04 01:46:17;;;;;;;;;17.00;17.00;;;;;20.42;72.45;99731.44;6280819;20;2835666;-63
2022/08/04 01:48:48;;;;;;;;;18.00;17.00;;;;;20.25;72.82;99738.63;6283328;20;2821089;-63
2022/08/04 01:51:20;;;;;;;;;18.67;18.67;;;;;20.37;72.72;99737.38;6282990;20;3574298;-65
2022/08/04 01:53:48;;;;;;;;;21.50;20.00;;;;;19.99;73.65;99730.34;6279274;20;2837787;-65
2022/08/04 01:56:19;;;;;;;;;19.00;18.00;;;;;20.18;73.03;99727.47;6289041;20;3565843;-64
2022/08/04 01:58:48;;;;;;;;;19.00;17.00;;;;;20.06;72.78;99728.69;6282484;20;2824209;-64
2022/08/04 02:01:16;;;;;;;;;19.50;18.00;;;;;20.00;72.97;99725.75;6288492;20;2835652;-64
2022/08/04 02:03:45;;;;;;;;;19.33;19.33;;;;;20.05;72.95;99726.16;6286544;20;3579460;-64
2022/08/04 02:06:55;;;;;;;;;18.50;17.00;;;;;20.20;72.09;99727.34;6282764;20;2822361;-65
2022/08/04 02:09:57;;;;;;;;;18.00;18.00;;;;;19.93;72.96;99725.50;6285275;20;2827399;-64
2022/08/04 02:13:13;;;;;;;;;19.67;19.67;;;;;20.05;73.17;99720.69;6288865;20;3573142;-60
2022/08/04 02:16:20;;;;;;;;;16.00;16.00;;;;;20.16;72.63;99717.72;6286269;20;3556530;-60
2022/08/04 02:19:32;;;;;;;;;17.00;16.67;;;;;19.70;74.08;99717.75;6318396;20;3561667;-60
2022/08/04 02:22:18;;;;;;;;;21.33;21.00;;;;;19.78;73.89;99719.72;6290228;20;3569142;-60
2022/08/04 02:24:52;;;;;;;;;17.50;17.50;;;;;19.69;75.00;99715.19;6286363;20;2829430;-60
2022/08/04 02:27:31;;;;;;;;;19.00;19.00;;;;;19.89;74.91;99719.50;6284954;20;2835689;-60
2022/08/04 02:30:21;;;;;;;;;17.50;17.00;;;;;19.94;74.25;99719.91;6283608;20;2835725;-61
2022/08/04 02:32:55;;;;;;;;;24.00;21.50;;;;;19.96;73.91;99711.59;6285054;20;2829478;-60
2022/08/04 02:35:27;;;;;;;;;19.50;18.50;;;;;19.72;75.06;99720.31;6285494;20;2839870;-60
2022/08/04 02:38:31;;;;;;;;;21.00;19.33;;;;;19.50;76.16;99710.66;6289379;20;3560667;-60
2022/08/04 02:41:01;;;;;;;;;21.33;21.33;;;;;19.40;76.00;99705.25;6320794;20;3579814;-60
2022/08/04 02:43:31;;;;;;;;;26.50;20.00;;;;;19.37;76.74;99711.00;6287021;20;2832576;-65
2022/08/04 02:46:21;;;;;;;;;18.00;18.00;;;;;19.74;75.51;99712.84;6284651;20;2826287;-66
2022/08/04 02:48:53;;;;;;;;;19.00;19.00;;;;;19.46;76.84;99709.28;6291518;20;3566897;-66
2022/08/04 02:51:36;;;;;;;;;18.00;18.00;;;;;19.97;74.84;99706.97;6286978;20;2841917;-66
2022/08/04 02:54:07;;;;;;;;;23.33;22.33;;;;;19.59;75.65;99708.91;6284442;20;2843100;-66
2022/08/04 02:56:39;;;;;;;;;20.00;18.00;;;;;19.62;75.46;99714.06;6317430;20;3562865;-66
2022/08/04 02:59:12;;;;;;;;;22.67;20.33;;;;;19.90;74.45;99704.84;6288102;20;3573293;-66
2022/08/04 03:01:41;;;;;;;;;18.33;18.33;;;;;19.67;75.72;99718.06;6287771;20;3568974;-66
2022/08/04 03:04:53;;;;;;;;;19.67;15.67;;;;;19.22;77.10;99709.78;6284235;20;2496121;-66
2022/08/04 03:08:04;;;;;;;;;24.00;21.00;;;;;19.50;74.85;99711.53;6313337;20;3582591;-66
2022/08/04 03:11:06;;;;;;;;;20.67;20.67;;;;;19.24;76.63;99715.94;6283854;20;3571228;-66
2022/08/04 03:14:07;;;;;;;;;26.67;25.00;;;;;19.32;75.92;99713.31;6288315;20;3598214;-66
2022/08/04 03:17:20;;;;;;;;;23.00;21.50;;;;;19.03;77.44;99717.00;6282770;20;2838949;-65
2022/08/04 03:20:37;;;;;;;;;27.67;25.33;;;;;18.89;77.98;99709.34;6288189;20;3611748;-65
2022/08/04 03:24:14;;;;;;;;;28.00;26.33;;;;;19.12;76.38;99709.00;6290335;20;3594028;-65
2022/08/04 03:27:12;;;;;;;;;22.00;21.33;;;;;18.94;77.40;99722.50;6286756;20;3571167;-66
2022/08/04 03:30:05;;;;;;;;;25.00;22.00;;;;;18.78;77.62;99717.66;6281082;20;2845084;-66
2022/08/04 03:33:36;;;;;;;;;19.00;19.00;;;;;19.01;76.66;99724.50;6287885;20;3572104;-65
2022/08/04 03:36:40;;;;;;;;;32.00;29.33;;;;;19.19;76.30;99719.09;6282182;20;3595107;-66
2022/08/04 03:40:16;;;;;;;;;29.33;28.33;;;;;18.55;78.44;99717.09;6289010;20;3592994;-65
2022/08/04 03:43:15;;;;;;;;;53.00;42.33;;;;;18.84;77.50;99725.25;6287395;20;3592955;-66
2022/08/04 03:46:54;;;;;;;;;30.50;28.00;;;;;18.68;77.76;99725.81;6285913;20;3608751;-66
2022/08/04 03:50:19;;;;;;;;;17.00;17.00;;;;;19.12;76.28;99733.47;6317732;20;2829440;-65
2022/08/04 03:53:27;;;;;;;;;19.50;19.50;;;;;19.04;76.07;99731.50;6283746;20;2831526;-66
2022/08/04 03:56:26;;;;;;;;;24.00;24.00;;;;;18.87;77.58;99727.66;6286352;20;2850414;-66
2022/08/04 04:00:08;;;;;;;;;24.67;23.33;;;;;19.30;75.33;99731.69;6318974;20;3589869;-66
2022/08/04 04:03:30;;;;;;;;;20.00;19.00;;;;;19.68;74.24;99727.94;6279748;20;2844086;-66
2022/08/04 04:06:57;;;;;;;;;18.67;17.00;;;;;19.55;74.43;99735.59;6318784;20;3577377;-66
2022/08/04 04:09:59;;;;;;;;;30.33;20.33;;;;;19.56;75.28;99731.00;6283724;20;2869231;-65
2022/08/04 04:12:58;;;;;;;;;21.00;19.67;;;;;19.37;76.60;99738.25;6318250;20;3557665;-66
2022/08/04 04:16:06;;;;;;;;;22.33;18.67;;;;;19.36;76.42;99741.97;6317419;20;3577346;-65
2022/08/04 04:19:24;;;;;;;;;23.33;22.00;;;;;19.55;76.55;99745.63;6280079;20;2852657;-58
2022/08/04 04:22:17;;;;;;;;;22.00;22.00;;;;;19.58;76.03;99739.88;6317097;20;3585686;-61
2022/08/04 04:25:25;;;;;;;;;23.33;23.33;;;;;19.66;75.68;99742.69;6286602;20;3586717;-59
2022/08/04 04:28:42;;;;;;;;;26.67;22.33;;;;;20.29;73.64;99742.75;6283198;20;3571043;-61
2022/08/04 04:32:23;;;;;;;;;34.75;27.75;;;;;20.52;72.15;99751.31;6286230;20;3617969;-60
2022/08/04 04:35:28;;;;;;;;;22.00;21.00;;;;;20.39;72.36;99746.25;6314380;20;3579406;-59
2022/08/04 04:38:28;;;;;;;;;21.50;20.00;;;;;20.13;73.59;99750.75;6280831;20;2832596;-60
2022/08/04 04:41:16;;;;;;;;;20.00;18.00;;;;;20.15;72.90;99754.19;6289389;20;3566947;-60
2022/08/04 04:44:11;;;;;;;;;22.00;22.00;;;;;20.22;73.45;99749.84;6284525;20;3580585;-59
2022/08/04 04:46:59;;;;;;;;;21.00;21.00;;;;;20.34;73.54;99755.91;6287437;20;3589832;-60
2022/08/04 04:49:51;;;;;;;;;21.00;19.50;;;;;20.64;71.77;99754.69;6287944;20;2831522;-60
2022/08/04 04:52:52;;;;;;;;;21.50;19.00;;;;;20.81;71.21;99750.22;6283391;20;2833585;-60
2022/08/04 04:56:05;;;;;;;;;24.00;19.00;;;;;21.13;69.97;99754.19;6283885;20;3583676;-60
2022/08/04 04:58:36;;;;;;;;;20.00;18.00;;;;;21.32;68.96;99753.13;6279281;20;2824259;-60
2022/08/04 05:02:02;;;;;;;;;20.50;15.50;;;;;21.57;67.98;99762.34;6280709;20;2500253;-60
2022/08/04 05:04:55;;;;;;;;;17.50;17.00;;;;;21.44;68.66;99760.91;6283750;20;2837800;-60
2022/08/04 05:08:38;;;;;;;;;19.67;18.33;;;;;22.00;65.55;99764.03;6286624;20;3555447;-61
2022/08/04 05:11:40;;;;;;;;;17.00;16.00;;;;;22.31;64.06;99766.22;6311477;20;2829476;-60
2022/08/04 05:14:24;;;;;;;;;22.00;19.00;;;;;22.47;64.05;99771.69;6282813;20;2844139;-60
2022/08/04 05:17:27;;;;;;;;;24.00;20.67;;;;;22.57;63.02;99777.03;6313861;20;3580645;-59
2022/08/04 05:20:34;;;;;;;;;27.00;26.33;;;;;22.49;64.03;99777.88;6278382;20;3592946;-59
2022/08/04 05:23:18;;;;;;;;;22.33;21.00;;;;;23.08;61.64;99779.59;6284281;20;3567003;-60
2022/08/04 05:26:00;;;;;;;;;17.00;15.67;;;;;23.21;60.63;99779.94;6283378;20;3560694;-59
2022/08/04 05:28:35;;;;;;;;;17.00;16.00;;;;;23.37;59.83;99788.09;6276091;20;2827487;-58
2022/08/04 05:31:22;;;;;;;;;14.33;14.00;;;;;23.60;58.76;99787.38;6280856;20;2479475;-60
2022/08/04 05:34:04;;;;;;;;;15.00;15.00;;;;;23.78;57.21;99782.53;6313853;20;2818985;-59
2022/08/04 05:36:51;;;;;;;;;12.33;12.33;;;;;24.24;55.66;99787.28;6283118;20;3529650;-60
2022/08/04 05:39:27;;;;;;;;;14.00;14.00;;;;;24.31;55.33;99789.13;6282473;20;3529490;-61
2022/08/04 05:42:03;;;;;;;;;11.33;10.00;;;;;24.13;56.16;99790.44;6287523;20;2791903;-62
2022/08/04 05:44:35;;;;;;;;;14.00;14.00;;;;;24.29;56.15;99796.69;6315104;20;2483740;-60
2022/08/04 05:47:06;;;;;;;;;14.00;14.00;;;;;24.82;55.06;99798.75;6312647;20;2483599;-62
2022/08/04 05:49:40;;;;;;;;;14.00;12.33;;;;;24.72;54.70;99804.50;6309894;20;3529532;-61
2022/08/04 05:52:10;;;;;;;;;12.33;12.33;;;;;24.66;55.87;99802.47;6277263;20;3520069;-61
2022/08/04 05:54:41;;;;;;;;;12.33;12.00;;;;;24.36;56.76;99807.81;6279803;20;2487882;-62
2022/08/04 05:57:10;;;;;;;;;10.33;10.33;;;;;24.69;54.46;99796.63;6311060;20;3519000;-62
2022/08/04 05:59:45;;;;;;;;;13.67;12.00;;;;;24.96;53.64;99803.44;6280180;20;3532763;-62
2022/08/04 06:02:16;;;;;;;;;9.33;9.33;;;;;25.13;52.17;99807.75;6314354;20;3498170;-62
2022/08/04 06:04:50;;;;;;;;;10.67;10.67;;;;;25.12;51.06;99806.06;6315924;20;2786794;-62
2022/08/04 06:07:19;;;;;;;;;10.67;10.67;;;;;25.27;51.89;99810.75;6318218;20;2788926;-62
2022/08/04 06:09:48;;;;;;;;;9.00;9.00;;;;;25.44;50.35;99806.81;6313619;20;2744159;-61
2022/08/04 06:12:52;;;;;;;;;8.67;8.67;;;;;25.69;48.65;99814.78;6314965;20;2754489;-62
2022/08/04 06:15:23;;;;;;;;;7.00;7.00;;;;;25.82;48.11;99812.22;6310514;20;3459597;-62
2022/08/04 06:18:06;;;;;;;;;8.60;8.60;;;;;25.56;47.83;99816.28;6337053;20;2755553;-62
2022/08/04 06:20:59;;;;;;;;;9.00;9.00;;;;;26.06;47.51;99811.94;6282610;20;2746201;-61
2022/08/04 06:23:36;;;;;;;;;9.00;8.00;;;;;25.99;47.37;99813.78;6318078;20;2745074;-62
2022/08/04 06:26:25;;;;;;;;;9.00;9.00;;;;;26.28;47.13;99817.53;6311937;20;2748196;-62
2022/08/04 06:28:55;;;;;;;;;7.67;7.67;;;;;26.21;46.33;99820.19;6314859;20;2738912;-62
2022/08/04 06:31:42;;;;;;;;;11.00;10.33;;;;;26.36;46.02;99813.81;6313114;20;3514813;-62
2022/08/04 06:34:32;;;;;;;;;9.00;8.00;;;;;26.40;46.09;99821.47;6321622;20;2756527;-62
2022/08/04 06:37:03;;;;;;;;;7.20;7.20;;;;;26.69;44.76;99817.78;6338093;20;2737751;-62
2022/08/04 06:39:32;;;;;;;;;10.67;9.00;;;;;26.88;44.95;99824.56;6284245;20;2763858;-62
2022/08/04 06:42:03;;;;;;;;;7.33;7.00;;;;;27.13;44.03;99826.91;6324024;20;2740899;-61
2022/08/04 06:44:55;;;;;;;;;10.00;8.33;;;;;27.33;42.95;99824.34;6316707;20;2769242;-64
2022/08/04 06:47:25;;;;;;;;;8.33;8.33;;;;;27.20;42.38;99819.59;6318214;20;2747206;-65
2022/08/04 06:49:55;;;;;;;;;10.33;7.33;;;;;27.70;42.83;99820.38;6316159;20;2768026;-64
2022/08/04 06:52:45;;;;;;;;;8.00;8.00;;;;;28.21;42.16;99821.94;6319898;20;2751360;-64
2022/08/04 06:55:14;;;;;;;;;7.00;7.00;;;;;28.80;41.33;99823.22;6322298;20;2764823;-64
2022/08/04 06:57:44;;;;;;;;;9.00;9.00;;;;;28.53;40.20;99825.06;6320580;20;2751314;-65
2022/08/04 07:00:13;;;;;;;;;7.67;7.00;;;;;29.21;40.35;99827.75;6316584;20;2744000;-64
2022/08/04 07:02:50;;;;;;;;;8.00;8.00;;;;;29.40;38.84;99835.19;6319749;20;2746265;-64
2022/08/04 07:05:20;;;;;;;;;5.67;5.67;;;;;29.49;39.13;99830.28;6319348;20;2741950;-63
2022/08/04 07:07:49;;;;;;;;;8.33;7.33;;;;;29.68;38.02;99831.38;6325466;20;2744054;-57
2022/08/04 07:10:28;;;;;;;;;8.67;7.33;;;;;30.10;37.00;99837.44;6318665;20;2750293;-56
2022/08/04 07:12:59;;;;;;;;;8.00;6.67;;;;;29.96;36.17;99840.25;6318669;20;2738792;-56
2022/08/04 07:15:28;;;;;;;;;8.33;8.00;;;;;30.42;36.12;99835.63;6314346;20;2739865;-56
2022/08/04 07:17:58;;;;;;;;;6.00;5.00;;;;;30.25;35.06;99834.41;6317731;20;2730445;-57
2022/08/04 07:20:31;;;;;;;;;6.60;6.60;;;;;30.46;35.59;99836.03;6333663;20;2753433;-58
2022/08/04 07:23:09;;;;;;;;;7.00;7.00;;;;;30.81;34.94;99834.59;6288231;20;2756486;-58
2022/08/04 07:25:37;;;;;;;;;5.00;5.00;;;;;30.82;34.91;99840.97;6321189;20;2734744;-58
2022/08/04 07:28:29;;;;;;;;;9.00;5.33;;;;;30.73;33.35;99836.72;6307109;20;2763879;-57
2022/08/04 07:30:58;;;;;;;;;5.00;5.00;;;;;31.43;32.46;99834.78;6307409;20;2742992;-58
2022/08/04 07:33:28;;;;;;;;;5.00;5.00;;;;;31.52;32.29;99840.91;6321750;20;2738802;-58
2022/08/04 07:35:57;;;;;;;;;6.67;6.67;;;;;31.80;33.15;99834.00;6318994;20;2744020;-58
2022/08/04 07:38:41;;;;;;;;;3.33;3.33;;;;;31.33;32.85;99841.88;6318226;20;2748219;-61
2022/08/04 07:41:24;;;;;;;;;5.67;5.67;;;;;31.32;32.00;99829.94;6318852;20;2730529;-61
2022/08/04 07:44:14;;;;;;;;;4.67;4.67;;;;;31.85;32.11;99832.22;6319878;20;2733712;-62
2022/08/04 07:46:45;;;;;;;;;6.33;6.33;;;;;32.03;31.32;99836.13;6319908;20;2736714;-61
2022/08/04 07:49:15;;;;;;;;;5.33;5.33;;;;;32.17;31.73;99828.47;6319753;20;2745042;-62
2022/08/04 07:52:06;;;;;;;;;4.33;4.33;;;;;31.54;31.09;99830.41;6320321;20;2738813;-62
2022/08/04 07:54:35;;;;;;;;;7.00;6.00;;;;;31.28;30.50;99824.00;6319925;20;2735723;-61
2022/08/04 07:57:03;;;;;;;;;5.67;5.00;;;;;31.56;30.44;99825.47;6317721;20;2736720;-61
2022/08/04 07:59:35;;;;;;;;;2.20;2.20;;;;;31.93;29.64;99828.31;6343167;20;2742004;-62
2022/08/04 08:02:04;;;;;;;;;6.00;6.00;;;;;32.30;29.42;99819.97;6288618;20;2743993;-61
2022/08/04 08:04:34;;;;;;;;;2.00;2.00;;;;;31.85;29.80;99823.03;6341849;20;2733671;-62
2022/08/04 08:07:02;;;;;;;;;7.00;6.67;;;;;32.14;30.58;99821.47;6286592;20;2754452;-62
2022/08/04 08:09:33;;;;;;;;;7.00;5.67;;;;;32.26;30.01;99822.38;6316149;20;2746108;-63
2022/08/04 08:12:02;;;;;;;;;6.00;4.33;;;;;32.35;30.96;99820.97;6321215;20;2731518;-64
2022/08/04 08:14:51;;;;;;;;;5.00;5.00;;;;;32.71;29.58;99826.72;6317812;20;2739873;-61
2022/08/04 08:17:19;;;;;;;;;6.00;6.00;;;;;32.86;29.04;99821.59;6317200;20;2746141;-64
2022/08/04 08:19:48;;;;;;;;;6.33;6.33;;;;;32.75;28.93;99817.66;6320365;20;2734792;-64
2022/08/04 08:22:17;;;;;;;;;5.00;5.00;;;;;32.50;28.25;99820.59;6319382;20;2740987;-64
2022/08/04 08:24:45;;;;;;;;;5.00;5.00;;;;;32.83;27.82;99829.53;6321297;20;2739250;-64
2022/08/04 08:27:14;;;;;;;;;4.33;4.33;;;;;33.29;27.47;99828.84;6318026;20;2731534;-63
2022/08/04 08:29:44;;;;;;;;;5.67;3.00;;;;;32.68;28.30;99827.22;6317020;20;2750247;-64
2022/08/04 08:32:14;;;;;;;;;5.00;5.00;;;;;33.07;27.76;99828.53;6316264;20;2744002;-64
2022/08/04 08:34:45;;;;;;;;;6.33;5.67;;;;;33.07;27.63;99830.47;6317717;20;2739858;-63
2022/08/04 08:37:33;;;;;;;;;7.00;6.00;;;;;33.04;27.96;99825.41;6319529;20;2744008;-64
2022/08/04 08:40:21;;;;;;;;;2.33;2.33;;;;;33.25;27.81;99827.63;6317808;20;2756554;-63
2022/08/04 08:44:13;;;;;;;;;6.33;6.33;;;;;33.52;26.98;99827.16;6318466;20;2744003;-63
2022/08/04 08:47:55;;;;;;;;;7.00;7.00;;;;;33.25;27.69;99822.03;6317168;20;2752439;-63
2022/08/04 08:51:17;;;;;;;;;8.33;5.00;;;;;33.84;27.17;99827.69;6318566;20;2732598;-64
2022/08/04 08:54:39;;;;;;;;;6.00;5.00;;;;;34.19;27.33;99827.63;6320265;20;2740258;-63
2022/08/04 08:57:49;;;;;;;;;5.00;5.00;;;;;34.05;26.55;99832.59;6314327;20;2741920;-63
2022/08/04 09:01:06;;;;;;;;;4.67;4.67;;;;;33.80;26.62;99832.88;6266313;20;2741974;-64
2022/08/04 09:04:24;;;;;;;;;5.33;4.00;;;;;34.09;25.88;99824.63;6218410;20;2737742;-63
2022/08/04 09:07:20;;;;;;;;;5.00;5.00;;;;;33.05;27.49;99827.13;6326659;20;2733860;-63
2022/08/04 09:10:24;;;;;;;;;5.67;5.67;;;;;33.57;27.07;99824.53;6316437;20;2739865;-64
2022/08/04 09:13:12;;;;;;;;;4.33;4.33;;;;;34.00;26.90;99828.88;6304554;20;2725343;-61
2022/08/04 09:16:19;;;;;;;;;6.00;6.00;;;;;32.84;28.09;99818.19;6313239;20;2735775;-60
2022/08/04 09:19:02;;;;;;;;;6.00;6.00;;;;;33.65;27.17;99824.16;6306427;20;2736764;-63
2022/08/04 09:22:21;;;;;;;;;5.00;5.00;;;;;33.13;27.38;99823.97;6317096;20;2741982;-64
2022/08/04 09:25:06;;;;;;;;;7.33;6.00;;;;;33.34;27.79;99825.34;6309212;20;2733671;-64
2022/08/04 09:27:54;;;;;;;;;5.67;5.67;;;;;33.75;26.83;99824.41;6310601;20;2737757;-64
2022/08/04 09:30:33;;;;;;;;;5.00;5.00;;;;;33.86;26.26;99818.00;6314443;20;2732682;-65
2022/08/04 09:33:35;;;;;;;;;8.33;7.00;;;;;34.18;26.91;99820.38;6311960;20;2754434;-63
2022/08/04 09:36:57;;;;;;;;;6.00;6.00;;;;;34.09;26.94;99821.84;6312598;20;2759664;-64
2022/08/04 09:40:25;;;;;;;;;8.33;7.00;;;;;34.23;26.32;99823.28;6307167;20;2744122;-65
2022/08/04 09:44:07;;;;;;;;;6.00;6.00;;;;;34.27;26.69;99813.31;6310191;20;2735851;-65
2022/08/04 09:47:25;;;;;;;;;5.00;5.00;;;;;33.20;27.45;99808.00;6310209;20;2735805;-66
2022/08/04 09:50:38;;;;;;;;;4.00;3.67;;;;;33.12;27.90;99805.56;6314069;20;2738910;-66
2022/08/04 09:53:53;;;;;;;;;5.67;5.00;;;;;33.49;27.54;99809.00;6310597;20;2739944;-67
2022/08/04 09:57:03;;;;;;;;;5.00;5.00;;;;;34.36;26.96;99807.34;6310989;20;2739928;-65
2022/08/04 10:00:07;;;;;;;;;7.33;7.33;;;;;33.56;26.97;99806.13;6307191;20;2756656;-67
2022/08/04 10:02:54;;;;;;;;;6.00;6.00;;;;;34.22;26.41;99799.25;6311441;20;2741916;-65
2022/08/04 10:06:11;;;;;;;;;6.00;6.00;;;;;34.08;26.75;99797.88;6313348;20;2742092;-67
2022/08/04 10:09:28;;;;;;;;;6.33;5.67;;;;;33.56;27.19;99795.00;6308422;20;2738022;-60
2022/08/04 10:11:56;;;;;;;;;5.00;5.00;;;;;33.44;27.36;99792.16;6311888;20;2730977;-60
2022/08/04 10:14:40;;;;;;;;;8.67;7.00;;;;;33.25;27.87;99785.88;6312393;20;2746179;-63
2022/08/04 10:17:37;;;;;;;;;6.00;6.00;;;;;34.06;26.49;99791.69;6320755;20;2739849;-65
2022/08/04 10:20:56;;;;;;;;;9.00;7.00;;;;;33.94;27.17;99788.03;6320790;20;2741948;-64
2022/08/04 10:23:53;;;;;;;;;7.00;7.00;;;;;33.94;26.76;99779.69;6318850;20;2744099;-65
2022/08/04 10:26:45;;;;;;;;;7.33;6.67;;;;;33.69;27.05;99774.41;6319361;20;2735782;-65
2022/08/04 10:29:45;;;;;;;;;6.00;6.00;;;;;34.13;26.62;99772.88;6319284;20;2748169;-63
2022/08/04 10:32:33;;;;;;;;;7.00;7.00;;;;;34.48;26.79;99781.09;6305567;20;2748213;-63
2022/08/04 10:35:22;;;;;;;;;8.33;7.00;;;;;34.59;26.43;99776.59;6318721;20;2745111;-63
2022/08/04 10:38:18;;;;;;;;;7.00;7.00;;;;;34.64;26.52;99775.84;6314676;20;2746130;-62
2022/08/04 10:41:26;;;;;;;;;5.67;5.67;;;;;35.04;25.46;99783.25;6320097;20;2739872;-64
2022/08/04 10:44:22;;;;;;;;;4.33;4.33;;;;;34.93;26.30;99766.34;6316155;20;2734640;-65
2022/08/04 10:47:00;;;;;;;;;7.67;6.00;;;;;34.87;25.63;99767.34;6312598;20;2750320;-64
2022/08/04 10:49:39;;;;;;;;;7.67;6.33;;;;;34.82;26.59;99763.63;6303636;20;2736766;-60
2022/08/04 10:52:27;;;;;;;;;4.33;4.33;;;;;34.72;26.18;99756.75;6320572;20;2748366;-64
2022/08/04 10:55:02;;;;;;;;;4.00;4.00;;;;;34.23;26.88;99750.81;6322149;20;2737743;-64
2022/08/04 10:57:51;;;;;;;;;6.00;6.00;;;;;33.72;26.97;99749.69;6321946;20;2739884;-64
2022/08/04 11:00:28;;;;;;;;;7.00;7.00;;;;;34.22;27.12;99740.72;6325644;20;2750427;-64
2022/08/04 11:03:24;;;;;;;;;8.33;6.33;;;;;34.66;26.27;99754.97;6320392;20;2742952;-63
2022/08/04 11:05:59;;;;;;;;;7.33;7.33;;;;;34.51;26.24;99743.50;6320073;20;2744007;-65
2022/08/04 11:08:53;;;;;;;;;8.00;8.00;;;;;33.91;26.72;99736.44;6323517;20;2746089;-66
2022/08/04 11:11:38;;;;;;;;;8.33;8.33;;;;;32.97;28.54;99737.31;6325391;20;2745054;-65
2022/08/04 11:14:58;;;;;;;;;7.67;5.00;;;;;33.03;27.93;99740.25;6320600;20;2735674;-63
2022/08/04 11:17:57;;;;;;;;;7.33;7.00;;;;;32.91;28.50;99741.03;6313811;20;2756559;-61
2022/08/04 11:20:45;;;;;;;;;7.00;7.00;;;;;32.69;28.16;99731.56;6318739;20;2752369;-61
2022/08/04 11:23:18;;;;;;;;;8.33;8.33;;;;;33.36;28.01;99745.19;6318631;20;2748274;-60
2022/08/04 11:26:44;;;;;;;;;8.00;6.00;;;;;32.97;27.95;99734.53;6324253;20;2748162;-62
2022/08/04 11:29:31;;;;;;;;;9.67;8.00;;;;;33.09;28.34;99731.78;6223441;20;2761103;-62
2022/08/04 11:32:09;;;;;;;;;7.00;7.00;;;;;33.59;27.72;99725.72;6328045;20;2752329;-61
2022/08/04 11:34:48;;;;;;;;;8.00;8.00;;;;;33.69;27.47;99733.47;6323427;20;2753380;-61
2022/08/04 11:37:49;;;;;;;;;8.00;8.00;;;;;33.28;27.96;99721.38;6313155;20;3463825;-62
2022/08/04 11:40:32;;;;;;;;;10.00;8.33;;;;;33.60;27.68;99723.81;6314518;20;2765936;-62
2022/08/04 11:43:21;;;;;;;;;8.00;8.00;;;;;34.29;26.85;99735.84;6326183;20;2751375;-59
2022/08/04 11:46:22;;;;;;;;;7.33;7.33;;;;;33.56;27.52;99726.22;6319418;20;2748170;-51
2022/08/04 11:49:14;;;;;;;;;7.00;7.00;;;;;33.69;27.81;99719.53;6316965;20;2756530;-58
2022/08/04 11:51:46;;;;;;;;;7.00;7.00;;;;;33.49;27.44;99716.28;6317581;20;2738784;-58
2022/08/04 11:54:16;;;;;;;;;8.00;8.00;;;;;34.38;26.81;99714.00;6319111;20;2747121;-57
2022/08/04 11:56:45;;;;;;;;;9.00;9.00;;;;;34.22;27.16;99715.63;6314797;20;2762804;-57
2022/08/04 11:59:14;;;;;;;;;5.67;4.67;;;;;34.33;26.63;99715.84;6319203;20;2722514;-55
2022/08/04 12:02:48;;;;;;;;;8.00;8.00;;;;;34.28;26.91;99697.94;6317209;20;2754457;-54
2022/08/04 12:05:26;;;;;;;;;8.67;7.67;;;;;33.99;26.89;99701.78;6318042;20;2752989;-58
2022/08/04 12:08:21;;;;;;;;;8.33;8.33;;;;;34.25;26.58;99698.41;6314641;20;3463768;-58
2022/08/04 12:11:44;;;;;;;;;7.33;7.33;;;;;33.93;27.36;99691.63;6315216;20;2750384;-59
2022/08/04 12:14:58;;;;;;;;;7.00;7.00;;;;;33.96;27.07;99691.13;6318236;20;2736787;-58
2022/08/04 12:17:59;;;;;;;;;7.00;7.00;;;;;33.74;27.17;99685.41;6318064;20;2742976;-56
2022/08/04 12:20:47;;;;;;;;;6.67;6.67;;;;;34.05;26.93;99686.88;6317076;20;2750416;-59
2022/08/04 12:23:35;;;;;;;;;8.33;8.00;;;;;34.40;26.19;99694.25;6314900;20;2747241;-58
2022/08/04 12:26:21;;;;;;;;;8.33;8.33;;;;;34.15;27.12;99691.81;6311930;20;3460680;-58
2022/08/04 12:28:59;;;;;;;;;9.33;9.33;;;;;34.90;25.62;99682.28;6316157;20;2759626;-59
2022/08/04 12:32:11;;;;;;;;;7.33;7.33;;;;;34.63;25.53;99677.41;6322162;20;2746146;-60
2022/08/04 12:35:17;;;;;;;;;5.00;5.00;;;;;34.39;26.02;99676.66;6327292;20;2730477;-58
2022/08/04 12:38:15;;;;;;;;;7.00;7.00;;;;;34.50;25.86;99672.13;6320803;20;2741941;-59
2022/08/04 12:40:56;;;;;;;;;7.00;7.00;;;;;34.46;25.58;99670.91;6315543;20;2754463;-59
2022/08/04 12:43:44;;;;;;;;;7.33;7.33;;;;;35.05;25.09;99676.13;6326419;20;2756514;-63
2022/08/04 12:46:26;;;;;;;;;6.67;6.00;;;;;34.89;25.57;99672.22;6318394;20;2744045;-63
2022/08/04 12:49:03;;;;;;;;;7.67;7.67;;;;;34.46;25.11;99666.19;6315336;20;2748315;-62
2022/08/04 12:51:43;;;;;;;;;8.00;6.33;;;;;34.88;25.85;99664.97;6322775;20;2750287;-61
2022/08/04 12:54:37;;;;;;;;;7.00;7.00;;;;;34.55;25.62;99658.25;6317779;20;2746236;-62